sensor_id;sensor_type;location;lat;lon;timestamp;P1;durP1;ratioP1;P2;durP2;ratioP2
23444;SDS011;11895;48.738;9.320;2023-06-26T00:01:43;11.32;;;8.43;;
23444;SDS011;11895;48.738;9.320;2023-06-26T00:04:14;16.67;;;10.10;;
23444;SDS011;11895;48.738;9.320;2023-06-26T00:06:42;12.85;;;8.90;;
23444;SDS011;11895;48.738;9.320;2023-06-26T00:09:09;11.23;;;7.45;;
23444;SDS011;11895;48.738;9.320;2023-06-26T00:11:36;9.07;;;7.47;;
23444;SDS011;11895;48.738;9.320;2023-06-26T00:14:03;11.88;;;7.65;;
23444;SDS011;11895;48.738;9.320;2023-06-26T00:16:31;14.48;;;8.18;;
23444;SDS011;11895;48.738;9.320;2023-06-26T00:18:59;11.50;;;7.82;;
23444;SDS011;11895;48.738;9.320;2023-06-26T00:21:27;13.63;;;8.45;;
23444;SDS011;11895;48.738;9.320;2023-06-26T00:23:54;17.75;;;9.27;;
23444;SDS011;11895;48.738;9.320;2023-06-26T00:26:22;10.82;;;8.77;;
23444;SDS011;11895;48.738;9.320;2023-06-26T00:28:50;14.23;;;9.13;;
23444;SDS011;11895;48.738;9.320;2023-06-26T00:31:19;17.27;;;9.27;;
23444;SDS011;11895;48.738;9.320;2023-06-26T00:33:50;10.82;;;8.13;;
23444;SDS011;11895;48.738;9.320;2023-06-26T00:36:18;18.45;;;8.45;;
23444;SDS011;11895;48.738;9.320;2023-06-26T00:38:45;11.77;;;7.85;;
23444;SDS011;11895;48.738;9.320;2023-06-26T00:41:12;10.10;;;7.05;;
23444;SDS011;11895;48.738;9.320;2023-06-26T00:43:40;11.60;;;7.82;;
23444;SDS011;11895;48.738;9.320;2023-06-26T00:46:10;13.45;;;9.48;;
23444;SDS011;11895;48.738;9.320;2023-06-26T00:48:44;10.98;;;8.27;;
23444;SDS011;11895;48.738;9.320;2023-06-26T00:51:17;11.30;;;8.10;;
23444;SDS011;11895;48.738;9.320;2023-06-26T00:53:45;11.80;;;7.73;;
23444;SDS011;11895;48.738;9.320;2023-06-26T00:56:14;11.50;;;8.15;;
23444;SDS011;11895;48.738;9.320;2023-06-26T00:58:44;12.18;;;7.90;;
23444;SDS011;11895;48.738;9.320;2023-06-26T01:01:12;12.88;;;8.25;;
23444;SDS011;11895;48.738;9.320;2023-06-26T01:03:44;11.68;;;8.38;;
23444;SDS011;11895;48.738;9.320;2023-06-26T01:06:20;11.75;;;8.43;;
23444;SDS011;11895;48.738;9.320;2023-06-26T01:08:50;10.65;;;7.97;;
23444;SDS011;11895;48.738;9.320;2023-06-26T01:11:19;11.55;;;8.43;;
23444;SDS011;11895;48.738;9.320;2023-06-26T01:13:47;10.55;;;8.27;;
23444;SDS011;11895;48.738;9.320;2023-06-26T01:16:14;11.70;;;8.20;;
23444;SDS011;11895;48.738;9.320;2023-06-26T01:18:46;11.52;;;8.30;;
23444;SDS011;11895;48.738;9.320;2023-06-26T01:21:15;11.60;;;8.50;;
23444;SDS011;11895;48.738;9.320;2023-06-26T01:26:49;11.82;;;8.32;;
23444;SDS011;11895;48.738;9.320;2023-06-26T01:29:18;13.48;;;8.32;;
23444;SDS011;11895;48.738;9.320;2023-06-26T01:31:50;12.82;;;9.43;;
23444;SDS011;11895;48.738;9.320;2023-06-26T01:34:19;10.95;;;8.18;;
23444;SDS011;11895;48.738;9.320;2023-06-26T01:36:49;13.07;;;8.90;;
23444;SDS011;11895;48.738;9.320;2023-06-26T01:39:18;11.80;;;8.35;;
23444;SDS011;11895;48.738;9.320;2023-06-26T01:41:46;13.50;;;8.70;;
23444;SDS011;11895;48.738;9.320;2023-06-26T01:44:27;10.60;;;8.13;;
23444;SDS011;11895;48.738;9.320;2023-06-26T01:47:04;11.52;;;8.27;;
23444;SDS011;11895;48.738;9.320;2023-06-26T01:58:15;14.07;;;8.18;;
23444;SDS011;11895;48.738;9.320;2023-06-26T02:00:45;14.45;;;9.73;;
23444;SDS011;11895;48.738;9.320;2023-06-26T02:03:13;11.73;;;8.70;;
23444;SDS011;11895;48.738;9.320;2023-06-26T02:05:41;10.85;;;8.52;;
23444;SDS011;11895;48.738;9.320;2023-06-26T02:08:09;11.85;;;8.73;;
23444;SDS011;11895;48.738;9.320;2023-06-26T02:10:47;10.70;;;8.25;;
23444;SDS011;11895;48.738;9.320;2023-06-26T02:13:15;11.20;;;8.47;;
23444;SDS011;11895;48.738;9.320;2023-06-26T02:15:43;11.32;;;9.00;;
23444;SDS011;11895;48.738;9.320;2023-06-26T02:18:10;14.32;;;8.25;;
23444;SDS011;11895;48.738;9.320;2023-06-26T02:20:38;11.23;;;8.13;;
23444;SDS011;11895;48.738;9.320;2023-06-26T02:23:06;13.40;;;9.07;;
23444;SDS011;11895;48.738;9.320;2023-06-26T02:25:35;14.27;;;8.73;;
23444;SDS011;11895;48.738;9.320;2023-06-26T02:28:02;12.18;;;9.02;;
23444;SDS011;11895;48.738;9.320;2023-06-26T02:30:30;13.88;;;9.80;;
23444;SDS011;11895;48.738;9.320;2023-06-26T02:32:59;13.35;;;9.45;;
23444;SDS011;11895;48.738;9.320;2023-06-26T02:35:27;12.73;;;9.23;;
23444;SDS011;11895;48.738;9.320;2023-06-26T02:37:54;15.45;;;9.30;;
23444;SDS011;11895;48.738;9.320;2023-06-26T02:40:22;12.07;;;9.30;;
23444;SDS011;11895;48.738;9.320;2023-06-26T02:42:51;13.07;;;9.90;;
23444;SDS011;11895;48.738;9.320;2023-06-26T02:45:19;12.55;;;9.05;;
23444;SDS011;11895;48.738;9.320;2023-06-26T02:47:46;14.77;;;9.05;;
23444;SDS011;11895;48.738;9.320;2023-06-26T02:50:14;12.27;;;8.07;;
23444;SDS011;11895;48.738;9.320;2023-06-26T02:53:04;15.57;;;8.65;;
23444;SDS011;11895;48.738;9.320;2023-06-26T02:55:33;13.95;;;9.07;;
23444;SDS011;11895;48.738;9.320;2023-06-26T03:00:29;11.15;;;8.77;;
23444;SDS011;11895;48.738;9.320;2023-06-26T03:03:00;11.93;;;8.55;;
23444;SDS011;11895;48.738;9.320;2023-06-26T03:05:28;12.95;;;9.05;;
23444;SDS011;11895;48.738;9.320;2023-06-26T03:07:58;15.65;;;9.27;;
23444;SDS011;11895;48.738;9.320;2023-06-26T03:10:26;12.17;;;8.73;;
23444;SDS011;11895;48.738;9.320;2023-06-26T03:12:53;12.63;;;8.43;;
23444;SDS011;11895;48.738;9.320;2023-06-26T03:15:22;11.52;;;8.15;;
23444;SDS011;11895;48.738;9.320;2023-06-26T03:17:49;13.27;;;9.20;;
23444;SDS011;11895;48.738;9.320;2023-06-26T03:20:23;12.43;;;9.35;;
23444;SDS011;11895;48.738;9.320;2023-06-26T03:22:55;13.73;;;8.63;;
23444;SDS011;11895;48.738;9.320;2023-06-26T03:25:23;12.88;;;8.98;;
23444;SDS011;11895;48.738;9.320;2023-06-26T03:27:59;11.57;;;7.95;;
23444;SDS011;11895;48.738;9.320;2023-06-26T03:30:27;13.80;;;9.27;;
23444;SDS011;11895;48.738;9.320;2023-06-26T03:32:57;12.57;;;8.80;;
23444;SDS011;11895;48.738;9.320;2023-06-26T03:35:28;12.70;;;9.45;;
23444;SDS011;11895;48.738;9.320;2023-06-26T03:37:57;14.23;;;10.40;;
23444;SDS011;11895;48.738;9.320;2023-06-26T03:40:26;19.15;;;10.63;;
23444;SDS011;11895;48.738;9.320;2023-06-26T03:42:54;14.93;;;10.20;;
23444;SDS011;11895;48.738;9.320;2023-06-26T03:45:21;14.27;;;9.02;;
23444;SDS011;11895;48.738;9.320;2023-06-26T03:47:48;14.55;;;9.45;;
23444;SDS011;11895;48.738;9.320;2023-06-26T03:50:16;12.48;;;8.90;;
23444;SDS011;11895;48.738;9.320;2023-06-26T03:52:45;12.90;;;9.55;;
23444;SDS011;11895;48.738;9.320;2023-06-26T03:55:13;15.87;;;9.60;;
23444;SDS011;11895;48.738;9.320;2023-06-26T03:57:44;16.08;;;9.45;;
23444;SDS011;11895;48.738;9.320;2023-06-26T04:00:13;12.13;;;9.38;;
23444;SDS011;11895;48.738;9.320;2023-06-26T04:02:44;11.52;;;8.77;;
23444;SDS011;11895;48.738;9.320;2023-06-26T04:05:13;17.02;;;10.57;;
23444;SDS011;11895;48.738;9.320;2023-06-26T04:07:41;18.90;;;9.35;;
23444;SDS011;11895;48.738;9.320;2023-06-26T04:10:08;12.63;;;8.65;;
23444;SDS011;11895;48.738;9.320;2023-06-26T04:12:36;14.55;;;9.75;;
23444;SDS011;11895;48.738;9.320;2023-06-26T04:15:04;13.68;;;9.45;;
23444;SDS011;11895;48.738;9.320;2023-06-26T04:17:32;12.57;;;9.60;;
23444;SDS011;11895;48.738;9.320;2023-06-26T04:20:00;12.30;;;9.35;;
23444;SDS011;11895;48.738;9.320;2023-06-26T04:22:28;14.95;;;8.95;;
23444;SDS011;11895;48.738;9.320;2023-06-26T04:24:55;12.95;;;8.73;;
23444;SDS011;11895;48.738;9.320;2023-06-26T04:27:22;13.45;;;8.90;;
23444;SDS011;11895;48.738;9.320;2023-06-26T04:29:50;14.88;;;9.95;;
23444;SDS011;11895;48.738;9.320;2023-06-26T04:32:18;13.20;;;9.25;;
23444;SDS011;11895;48.738;9.320;2023-06-26T04:34:45;13.50;;;9.52;;
23444;SDS011;11895;48.738;9.320;2023-06-26T04:37:14;15.48;;;9.20;;
23444;SDS011;11895;48.738;9.320;2023-06-26T04:39:45;14.18;;;9.40;;
23444;SDS011;11895;48.738;9.320;2023-06-26T04:42:12;15.57;;;9.45;;
23444;SDS011;11895;48.738;9.320;2023-06-26T04:44:39;13.88;;;9.30;;
23444;SDS011;11895;48.738;9.320;2023-06-26T04:47:08;19.02;;;9.07;;
23444;SDS011;11895;48.738;9.320;2023-06-26T04:49:36;12.77;;;8.32;;
23444;SDS011;11895;48.738;9.320;2023-06-26T04:52:05;11.35;;;8.15;;
23444;SDS011;11895;48.738;9.320;2023-06-26T04:54:32;12.07;;;9.35;;
23444;SDS011;11895;48.738;9.320;2023-06-26T04:57:00;12.27;;;9.15;;
23444;SDS011;11895;48.738;9.320;2023-06-26T04:59:27;15.50;;;9.88;;
23444;SDS011;11895;48.738;9.320;2023-06-26T05:01:55;19.80;;;9.05;;
23444;SDS011;11895;48.738;9.320;2023-06-26T05:04:23;14.65;;;9.07;;
23444;SDS011;11895;48.738;9.320;2023-06-26T05:06:50;13.43;;;9.20;;
23444;SDS011;11895;48.738;9.320;2023-06-26T05:09:18;12.77;;;8.68;;
23444;SDS011;11895;48.738;9.320;2023-06-26T05:11:45;15.45;;;9.40;;
23444;SDS011;11895;48.738;9.320;2023-06-26T05:14:13;15.88;;;9.80;;
23444;SDS011;11895;48.738;9.320;2023-06-26T05:16:40;14.05;;;8.75;;
23444;SDS011;11895;48.738;9.320;2023-06-26T05:19:07;14.98;;;8.82;;
23444;SDS011;11895;48.738;9.320;2023-06-26T05:21:35;12.57;;;9.30;;
23444;SDS011;11895;48.738;9.320;2023-06-26T05:24:03;15.88;;;9.32;;
23444;SDS011;11895;48.738;9.320;2023-06-26T05:26:31;12.27;;;8.30;;
23444;SDS011;11895;48.738;9.320;2023-06-26T05:28:59;11.88;;;8.95;;
23444;SDS011;11895;48.738;9.320;2023-06-26T05:31:32;12.07;;;8.30;;
23444;SDS011;11895;48.738;9.320;2023-06-26T05:34:07;12.00;;;8.10;;
23444;SDS011;11895;48.738;9.320;2023-06-26T05:36:37;14.38;;;8.02;;
23444;SDS011;11895;48.738;9.320;2023-06-26T05:39:09;10.18;;;7.57;;
23444;SDS011;11895;48.738;9.320;2023-06-26T05:41:37;10.45;;;8.00;;
23444;SDS011;11895;48.738;9.320;2023-06-26T05:44:05;12.33;;;7.70;;
23444;SDS011;11895;48.738;9.320;2023-06-26T05:46:32;10.52;;;7.75;;
23444;SDS011;11895;48.738;9.320;2023-06-26T05:48:59;12.48;;;7.53;;
23444;SDS011;11895;48.738;9.320;2023-06-26T05:51:28;14.40;;;8.27;;
23444;SDS011;11895;48.738;9.320;2023-06-26T05:53:56;17.60;;;8.60;;
23444;SDS011;11895;48.738;9.320;2023-06-26T05:56:24;10.60;;;8.03;;
23444;SDS011;11895;48.738;9.320;2023-06-26T05:58:52;12.27;;;7.38;;
23444;SDS011;11895;48.738;9.320;2023-06-26T06:01:21;12.25;;;8.27;;
23444;SDS011;11895;48.738;9.320;2023-06-26T06:03:48;14.32;;;7.90;;
23444;SDS011;11895;48.738;9.320;2023-06-26T06:06:16;15.93;;;8.18;;
23444;SDS011;11895;48.738;9.320;2023-06-26T06:08:44;12.18;;;8.60;;
23444;SDS011;11895;48.738;9.320;2023-06-26T06:11:15;15.57;;;8.40;;
23444;SDS011;11895;48.738;9.320;2023-06-26T06:13:42;13.30;;;8.35;;
23444;SDS011;11895;48.738;9.320;2023-06-26T06:16:09;11.88;;;7.70;;
23444;SDS011;11895;48.738;9.320;2023-06-26T06:18:37;12.90;;;8.27;;
23444;SDS011;11895;48.738;9.320;2023-06-26T06:21:04;16.25;;;8.40;;
23444;SDS011;11895;48.738;9.320;2023-06-26T06:23:32;12.45;;;7.88;;
23444;SDS011;11895;48.738;9.320;2023-06-26T06:25:59;13.07;;;7.72;;
23444;SDS011;11895;48.738;9.320;2023-06-26T06:28:26;14.65;;;7.88;;
23444;SDS011;11895;48.738;9.320;2023-06-26T06:30:54;14.68;;;7.28;;
23444;SDS011;11895;48.738;9.320;2023-06-26T06:33:21;10.57;;;7.32;;
23444;SDS011;11895;48.738;9.320;2023-06-26T06:35:49;11.48;;;7.28;;
23444;SDS011;11895;48.738;9.320;2023-06-26T06:38:18;16.48;;;7.28;;
23444;SDS011;11895;48.738;9.320;2023-06-26T06:40:47;9.67;;;7.47;;
23444;SDS011;11895;48.738;9.320;2023-06-26T06:43:15;9.60;;;7.72;;
23444;SDS011;11895;48.738;9.320;2023-06-26T06:45:42;12.85;;;7.90;;
23444;SDS011;11895;48.738;9.320;2023-06-26T06:48:11;17.73;;;7.75;;
23444;SDS011;11895;48.738;9.320;2023-06-26T06:50:40;12.60;;;7.17;;
23444;SDS011;11895;48.738;9.320;2023-06-26T06:53:08;13.52;;;7.65;;
23444;SDS011;11895;48.738;9.320;2023-06-26T06:55:36;14.07;;;7.68;;
23444;SDS011;11895;48.738;9.320;2023-06-26T06:58:03;11.10;;;7.82;;
23444;SDS011;11895;48.738;9.320;2023-06-26T07:00:31;11.73;;;7.00;;
23444;SDS011;11895;48.738;9.320;2023-06-26T07:02:59;8.88;;;6.85;;
23444;SDS011;11895;48.738;9.320;2023-06-26T07:05:27;14.50;;;7.22;;
23444;SDS011;11895;48.738;9.320;2023-06-26T07:07:55;19.92;;;7.13;;
23444;SDS011;11895;48.738;9.320;2023-06-26T07:10:25;7.50;;;6.40;;
23444;SDS011;11895;48.738;9.320;2023-06-26T07:12:53;9.40;;;7.25;;
23444;SDS011;11895;48.738;9.320;2023-06-26T07:15:23;10.80;;;7.43;;
23444;SDS011;11895;48.738;9.320;2023-06-26T07:20:19;14.32;;;7.50;;
23444;SDS011;11895;48.738;9.320;2023-06-26T07:22:48;11.45;;;6.60;;
23444;SDS011;11895;48.738;9.320;2023-06-26T07:25:15;10.23;;;6.70;;
23444;SDS011;11895;48.738;9.320;2023-06-26T07:27:43;11.25;;;6.82;;
23444;SDS011;11895;48.738;9.320;2023-06-26T07:30:11;9.20;;;6.90;;
23444;SDS011;11895;48.738;9.320;2023-06-26T07:32:40;7.32;;;6.43;;
23444;SDS011;11895;48.738;9.320;2023-06-26T07:35:09;9.02;;;6.55;;
23444;SDS011;11895;48.738;9.320;2023-06-26T07:37:36;11.75;;;7.10;;
23444;SDS011;11895;48.738;9.320;2023-06-26T07:40:04;9.68;;;6.93;;
23444;SDS011;11895;48.738;9.320;2023-06-26T07:42:32;10.55;;;6.70;;
23444;SDS011;11895;48.738;9.320;2023-06-26T07:45:00;9.02;;;6.50;;
23444;SDS011;11895;48.738;9.320;2023-06-26T07:47:27;8.05;;;6.30;;
23444;SDS011;11895;48.738;9.320;2023-06-26T07:49:56;16.50;;;6.23;;
23444;SDS011;11895;48.738;9.320;2023-06-26T07:52:23;9.48;;;6.03;;
23444;SDS011;11895;48.738;9.320;2023-06-26T07:54:53;8.35;;;6.47;;
23444;SDS011;11895;48.738;9.320;2023-06-26T07:57:20;10.52;;;6.18;;
23444;SDS011;11895;48.738;9.320;2023-06-26T07:59:47;12.02;;;6.15;;
23444;SDS011;11895;48.738;9.320;2023-06-26T08:02:15;10.45;;;6.07;;
23444;SDS011;11895;48.738;9.320;2023-06-26T08:04:43;8.50;;;5.68;;
23444;SDS011;11895;48.738;9.320;2023-06-26T08:07:11;11.07;;;6.18;;
23444;SDS011;11895;48.738;9.320;2023-06-26T08:09:40;12.05;;;6.20;;
23444;SDS011;11895;48.738;9.320;2023-06-26T08:12:08;10.10;;;5.97;;
23444;SDS011;11895;48.738;9.320;2023-06-26T08:14:38;13.18;;;6.25;;
23444;SDS011;11895;48.738;9.320;2023-06-26T08:17:06;10.90;;;5.65;;
23444;SDS011;11895;48.738;9.320;2023-06-26T08:19:33;10.52;;;6.32;;
23444;SDS011;11895;48.738;9.320;2023-06-26T08:22:01;9.43;;;5.78;;
23444;SDS011;11895;48.738;9.320;2023-06-26T08:24:29;10.30;;;5.50;;
23444;SDS011;11895;48.738;9.320;2023-06-26T08:26:56;7.17;;;5.47;;
23444;SDS011;11895;48.738;9.320;2023-06-26T08:29:25;8.73;;;5.40;;
23444;SDS011;11895;48.738;9.320;2023-06-26T08:31:53;7.10;;;5.27;;
23444;SDS011;11895;48.738;9.320;2023-06-26T08:34:20;12.48;;;6.25;;
23444;SDS011;11895;48.738;9.320;2023-06-26T08:36:48;9.57;;;4.95;;
23444;SDS011;11895;48.738;9.320;2023-06-26T08:39:16;8.95;;;5.32;;
23444;SDS011;11895;48.738;9.320;2023-06-26T08:41:43;8.40;;;5.28;;
23444;SDS011;11895;48.738;9.320;2023-06-26T08:44:11;6.90;;;5.47;;
23444;SDS011;11895;48.738;9.320;2023-06-26T08:46:39;8.65;;;5.35;;
23444;SDS011;11895;48.738;9.320;2023-06-26T08:49:14;8.82;;;5.03;;
23444;SDS011;11895;48.738;9.320;2023-06-26T08:52:03;7.28;;;5.20;;
23444;SDS011;11895;48.738;9.320;2023-06-26T08:54:45;8.13;;;5.53;;
23444;SDS011;11895;48.738;9.320;2023-06-26T08:57:22;6.07;;;4.85;;
23444;SDS011;11895;48.738;9.320;2023-06-26T08:59:50;5.17;;;4.53;;
23444;SDS011;11895;48.738;9.320;2023-06-26T09:04:51;7.38;;;4.47;;
23444;SDS011;11895;48.738;9.320;2023-06-26T09:07:18;6.73;;;4.57;;
23444;SDS011;11895;48.738;9.320;2023-06-26T09:09:46;10.50;;;4.75;;
23444;SDS011;11895;48.738;9.320;2023-06-26T09:12:13;12.07;;;4.87;;
23444;SDS011;11895;48.738;9.320;2023-06-26T09:14:41;5.78;;;4.18;;
23444;SDS011;11895;48.738;9.320;2023-06-26T09:17:09;5.15;;;4.45;;
23444;SDS011;11895;48.738;9.320;2023-06-26T09:19:36;8.88;;;4.88;;
23444;SDS011;11895;48.738;9.320;2023-06-26T09:22:10;5.40;;;4.57;;
23444;SDS011;11895;48.738;9.320;2023-06-26T09:24:41;8.00;;;5.57;;
23444;SDS011;11895;48.738;9.320;2023-06-26T09:27:10;6.25;;;4.93;;
23444;SDS011;11895;48.738;9.320;2023-06-26T09:29:38;8.52;;;5.15;;
23444;SDS011;11895;48.738;9.320;2023-06-26T09:32:07;9.40;;;4.78;;
23444;SDS011;11895;48.738;9.320;2023-06-26T09:34:36;9.05;;;4.45;;
23444;SDS011;11895;48.738;9.320;2023-06-26T09:37:07;7.40;;;4.20;;
23444;SDS011;11895;48.738;9.320;2023-06-26T09:39:35;5.18;;;4.30;;
23444;SDS011;11895;48.738;9.320;2023-06-26T09:42:06;9.00;;;4.57;;
23444;SDS011;11895;48.738;9.320;2023-06-26T09:44:33;6.47;;;4.53;;
23444;SDS011;11895;48.738;9.320;2023-06-26T09:47:03;7.65;;;4.50;;
23444;SDS011;11895;48.738;9.320;2023-06-26T09:49:33;5.85;;;4.28;;
23444;SDS011;11895;48.738;9.320;2023-06-26T09:52:01;9.75;;;4.35;;
23444;SDS011;11895;48.738;9.320;2023-06-26T09:54:29;7.32;;;3.88;;
23444;SDS011;11895;48.738;9.320;2023-06-26T09:57:08;9.82;;;4.40;;
23444;SDS011;11895;48.738;9.320;2023-06-26T09:59:37;9.80;;;4.72;;
23444;SDS011;11895;48.738;9.320;2023-06-26T10:02:07;9.40;;;4.90;;
23444;SDS011;11895;48.738;9.320;2023-06-26T10:04:35;7.88;;;4.18;;
23444;SDS011;11895;48.738;9.320;2023-06-26T10:07:08;6.20;;;4.43;;
23444;SDS011;11895;48.738;9.320;2023-06-26T10:09:42;6.13;;;4.00;;
23444;SDS011;11895;48.738;9.320;2023-06-26T10:12:19;9.43;;;3.92;;
23444;SDS011;11895;48.738;9.320;2023-06-26T10:14:57;8.60;;;4.18;;
23444;SDS011;11895;48.738;9.320;2023-06-26T10:17:27;10.82;;;3.97;;
23444;SDS011;11895;48.738;9.320;2023-06-26T10:20:01;5.40;;;3.90;;
23444;SDS011;11895;48.738;9.320;2023-06-26T10:22:32;10.90;;;3.85;;
23444;SDS011;11895;48.738;9.320;2023-06-26T10:27:44;14.50;;;3.63;;
23444;SDS011;11895;48.738;9.320;2023-06-26T10:30:23;9.25;;;3.70;;
23444;SDS011;11895;48.738;9.320;2023-06-26T10:32:55;10.38;;;3.95;;
23444;SDS011;11895;48.738;9.320;2023-06-26T10:35:24;6.80;;;4.07;;
23444;SDS011;11895;48.738;9.320;2023-06-26T10:37:52;9.55;;;4.40;;
23444;SDS011;11895;48.738;9.320;2023-06-26T10:40:40;7.40;;;3.80;;
23444;SDS011;11895;48.738;9.320;2023-06-26T10:43:15;5.03;;;3.90;;
23444;SDS011;11895;48.738;9.320;2023-06-26T10:45:45;5.38;;;4.28;;
23444;SDS011;11895;48.738;9.320;2023-06-26T10:48:19;6.35;;;4.63;;
23444;SDS011;11895;48.738;9.320;2023-06-26T10:50:50;6.85;;;4.70;;
23444;SDS011;11895;48.738;9.320;2023-06-26T10:55:48;7.20;;;4.40;;
23444;SDS011;11895;48.738;9.320;2023-06-26T10:58:30;10.70;;;4.80;;
23444;SDS011;11895;48.738;9.320;2023-06-26T11:04:08;19.20;;;4.85;;
23444;SDS011;11895;48.738;9.320;2023-06-26T11:06:41;5.22;;;4.30;;
23444;SDS011;11895;48.738;9.320;2023-06-26T11:09:17;7.05;;;4.85;;
23444;SDS011;11895;48.738;9.320;2023-06-26T11:14:21;10.40;;;5.00;;
23444;SDS011;11895;48.738;9.320;2023-06-26T11:16:51;7.10;;;4.95;;
23444;SDS011;11895;48.738;9.320;2023-06-26T11:19:19;18.52;;;5.47;;
23444;SDS011;11895;48.738;9.320;2023-06-26T11:21:47;11.25;;;5.07;;
23444;SDS011;11895;48.738;9.320;2023-06-26T11:24:15;7.85;;;4.50;;
23444;SDS011;11895;48.738;9.320;2023-06-26T11:26:43;4.45;;;4.00;;
23444;SDS011;11895;48.738;9.320;2023-06-26T11:29:12;6.93;;;4.95;;
23444;SDS011;11895;48.738;9.320;2023-06-26T11:31:45;8.75;;;4.82;;
23444;SDS011;11895;48.738;9.320;2023-06-26T11:34:13;8.48;;;4.60;;
23444;SDS011;11895;48.738;9.320;2023-06-26T11:36:41;8.65;;;4.65;;
23444;SDS011;11895;48.738;9.320;2023-06-26T11:39:12;5.10;;;4.47;;
23444;SDS011;11895;48.738;9.320;2023-06-26T11:41:40;11.93;;;5.10;;
23444;SDS011;11895;48.738;9.320;2023-06-26T11:44:09;5.77;;;4.67;;
23444;SDS011;11895;48.738;9.320;2023-06-26T11:46:37;7.35;;;4.50;;
23444;SDS011;11895;48.738;9.320;2023-06-26T11:49:05;8.05;;;4.72;;
23444;SDS011;11895;48.738;9.320;2023-06-26T11:51:34;6.28;;;4.57;;
23444;SDS011;11895;48.738;9.320;2023-06-26T11:54:03;7.72;;;5.18;;
23444;SDS011;11895;48.738;9.320;2023-06-26T11:59:00;8.13;;;5.22;;
23444;SDS011;11895;48.738;9.320;2023-06-26T12:01:43;12.95;;;5.28;;
23444;SDS011;11895;48.738;9.320;2023-06-26T12:04:15;10.98;;;5.10;;
23444;SDS011;11895;48.738;9.320;2023-06-26T12:06:47;6.68;;;4.97;;
23444;SDS011;11895;48.738;9.320;2023-06-26T12:09:23;7.63;;;5.22;;
23444;SDS011;11895;48.738;9.320;2023-06-26T12:11:53;13.27;;;4.57;;
23444;SDS011;11895;48.738;9.320;2023-06-26T12:14:23;6.10;;;4.70;;
23444;SDS011;11895;48.738;9.320;2023-06-26T12:16:54;6.68;;;4.93;;
23444;SDS011;11895;48.738;9.320;2023-06-26T12:19:25;9.52;;;4.63;;
23444;SDS011;11895;48.738;9.320;2023-06-26T12:21:54;9.15;;;4.82;;
23444;SDS011;11895;48.738;9.320;2023-06-26T12:24:23;14.00;;;4.60;;
23444;SDS011;11895;48.738;9.320;2023-06-26T12:26:53;11.90;;;4.10;;
23444;SDS011;11895;48.738;9.320;2023-06-26T12:29:33;6.85;;;4.32;;
23444;SDS011;11895;48.738;9.320;2023-06-26T12:32:01;9.63;;;3.83;;
23444;SDS011;11895;48.738;9.320;2023-06-26T12:34:33;9.38;;;4.50;;
23444;SDS011;11895;48.738;9.320;2023-06-26T12:37:04;14.48;;;4.97;;
23444;SDS011;11895;48.738;9.320;2023-06-26T12:39:45;6.70;;;3.88;;
23444;SDS011;11895;48.738;9.320;2023-06-26T12:42:25;9.80;;;4.57;;
23444;SDS011;11895;48.738;9.320;2023-06-26T12:44:55;8.07;;;4.07;;
23444;SDS011;11895;48.738;9.320;2023-06-26T12:47:26;6.95;;;4.13;;
23444;SDS011;11895;48.738;9.320;2023-06-26T12:49:57;12.73;;;4.35;;
23444;SDS011;11895;48.738;9.320;2023-06-26T12:52:24;10.65;;;4.50;;
23444;SDS011;11895;48.738;9.320;2023-06-26T12:54:53;7.97;;;4.28;;
23444;SDS011;11895;48.738;9.320;2023-06-26T12:57:23;8.27;;;4.47;;
23444;SDS011;11895;48.738;9.320;2023-06-26T12:59:52;7.57;;;4.43;;
23444;SDS011;11895;48.738;9.320;2023-06-26T13:02:19;12.48;;;4.45;;
23444;SDS011;11895;48.738;9.320;2023-06-26T13:04:47;8.40;;;4.70;;
23444;SDS011;11895;48.738;9.320;2023-06-26T13:07:15;10.32;;;4.28;;
23444;SDS011;11895;48.738;9.320;2023-06-26T13:09:42;7.78;;;4.40;;
23444;SDS011;11895;48.738;9.320;2023-06-26T13:12:10;6.45;;;4.45;;
23444;SDS011;11895;48.738;9.320;2023-06-26T13:14:37;4.30;;;3.90;;
23444;SDS011;11895;48.738;9.320;2023-06-26T13:17:05;9.75;;;3.80;;
23444;SDS011;11895;48.738;9.320;2023-06-26T13:19:35;10.57;;;4.00;;
23444;SDS011;11895;48.738;9.320;2023-06-26T13:24:31;11.55;;;4.30;;
23444;SDS011;11895;48.738;9.320;2023-06-26T13:26:58;6.78;;;4.38;;
23444;SDS011;11895;48.738;9.320;2023-06-26T13:29:25;6.53;;;4.07;;
23444;SDS011;11895;48.738;9.320;2023-06-26T13:31:53;13.37;;;4.67;;
23444;SDS011;11895;48.738;9.320;2023-06-26T13:34:21;12.68;;;4.22;;
23444;SDS011;11895;48.738;9.320;2023-06-26T13:36:54;5.15;;;4.10;;
23444;SDS011;11895;48.738;9.320;2023-06-26T13:39:23;9.15;;;4.18;;
23444;SDS011;11895;48.738;9.320;2023-06-26T13:41:50;8.67;;;4.33;;
23444;SDS011;11895;48.738;9.320;2023-06-26T13:44:17;9.15;;;4.45;;
23444;SDS011;11895;48.738;9.320;2023-06-26T13:47:01;9.30;;;4.30;;
23444;SDS011;11895;48.738;9.320;2023-06-26T13:49:33;5.70;;;4.40;;
23444;SDS011;11895;48.738;9.320;2023-06-26T13:52:00;7.30;;;4.07;;
23444;SDS011;11895;48.738;9.320;2023-06-26T13:54:28;4.83;;;3.97;;
23444;SDS011;11895;48.738;9.320;2023-06-26T13:56:55;6.28;;;3.88;;
23444;SDS011;11895;48.738;9.320;2023-06-26T13:59:23;10.60;;;5.10;;
23444;SDS011;11895;48.738;9.320;2023-06-26T14:01:54;9.00;;;4.32;;
23444;SDS011;11895;48.738;9.320;2023-06-26T14:04:22;4.78;;;4.00;;
23444;SDS011;11895;48.738;9.320;2023-06-26T14:09:17;5.95;;;3.38;;
23444;SDS011;11895;48.738;9.320;2023-06-26T14:11:45;7.45;;;3.97;;
23444;SDS011;11895;48.738;9.320;2023-06-26T14:14:13;5.85;;;3.65;;
23444;SDS011;11895;48.738;9.320;2023-06-26T14:16:40;12.15;;;3.95;;
23444;SDS011;11895;48.738;9.320;2023-06-26T14:19:08;16.87;;;4.20;;
23444;SDS011;11895;48.738;9.320;2023-06-26T14:21:41;7.47;;;4.60;;
23444;SDS011;11895;48.738;9.320;2023-06-26T14:24:08;4.53;;;3.50;;
23444;SDS011;11895;48.738;9.320;2023-06-26T14:26:36;7.10;;;4.05;;
23444;SDS011;11895;48.738;9.320;2023-06-26T14:29:05;5.30;;;3.60;;
23444;SDS011;11895;48.738;9.320;2023-06-26T14:31:33;4.13;;;3.55;;
23444;SDS011;11895;48.738;9.320;2023-06-26T14:34:01;11.77;;;6.22;;
23444;SDS011;11895;48.738;9.320;2023-06-26T14:36:29;7.95;;;4.13;;
23444;SDS011;11895;48.738;9.320;2023-06-26T14:38:58;11.88;;;3.83;;
23444;SDS011;11895;48.738;9.320;2023-06-26T14:41:27;7.38;;;5.60;;
23444;SDS011;11895;48.738;9.320;2023-06-26T14:43:55;6.40;;;3.28;;
23444;SDS011;11895;48.738;9.320;2023-06-26T14:46:23;9.93;;;3.63;;
23444;SDS011;11895;48.738;9.320;2023-06-26T14:48:51;5.22;;;3.30;;
23444;SDS011;11895;48.738;9.320;2023-06-26T14:51:19;9.23;;;2.90;;
23444;SDS011;11895;48.738;9.320;2023-06-26T14:53:47;4.07;;;2.92;;
23444;SDS011;11895;48.738;9.320;2023-06-26T14:56:15;7.55;;;3.25;;
23444;SDS011;11895;48.738;9.320;2023-06-26T14:58:42;5.90;;;3.10;;
23444;SDS011;11895;48.738;9.320;2023-06-26T15:01:09;6.60;;;3.27;;
23444;SDS011;11895;48.738;9.320;2023-06-26T15:03:37;3.65;;;2.30;;
23444;SDS011;11895;48.738;9.320;2023-06-26T15:06:05;4.20;;;2.50;;
23444;SDS011;11895;48.738;9.320;2023-06-26T15:11:01;4.97;;;2.40;;
23444;SDS011;11895;48.738;9.320;2023-06-26T15:13:31;4.63;;;2.35;;
23444;SDS011;11895;48.738;9.320;2023-06-26T15:15:59;5.17;;;2.17;;
23444;SDS011;11895;48.738;9.320;2023-06-26T15:18:26;3.83;;;2.60;;
23444;SDS011;11895;48.738;9.320;2023-06-26T15:20:53;3.00;;;2.23;;
23444;SDS011;11895;48.738;9.320;2023-06-26T15:23:20;6.47;;;2.50;;
23444;SDS011;11895;48.738;9.320;2023-06-26T15:25:48;3.90;;;2.40;;
23444;SDS011;11895;48.738;9.320;2023-06-26T15:28:15;6.57;;;2.40;;
23444;SDS011;11895;48.738;9.320;2023-06-26T15:30:43;4.90;;;2.28;;
23444;SDS011;11895;48.738;9.320;2023-06-26T15:33:12;3.60;;;2.45;;